sensor_id;sensor_type;location;lat;lon;timestamp;P1;durP1;ratioP1;P2;durP2;ratioP2
44110;SDS011;29774;52.664;5.074;2022-10-30T00:00:50;15.93;;;6.85;;
44110;SDS011;29774;52.664;5.074;2022-10-30T00:03:16;11.73;;;5.28;;
44110;SDS011;29774;52.664;5.074;2022-10-30T00:05:42;13.82;;;7.22;;
44110;SDS011;29774;52.664;5.074;2022-10-30T00:08:12;11.65;;;5.63;;
44110;SDS011;29774;52.664;5.074;2022-10-30T00:10:39;13.60;;;6.63;;
44110;SDS011;29774;52.664;5.074;2022-10-30T00:13:05;15.48;;;7.18;;
44110;SDS011;29774;52.664;5.074;2022-10-30T00:15:31;12.00;;;6.22;;
44110;SDS011;29774;52.664;5.074;2022-10-30T00:17:57;15.48;;;6.13;;
44110;SDS011;29774;52.664;5.074;2022-10-30T00:20:22;9.52;;;5.90;;
44110;SDS011;29774;52.664;5.074;2022-10-30T00:22:48;14.68;;;6.50;;
44110;SDS011;29774;52.664;5.074;2022-10-30T00:25:14;11.20;;;5.93;;
44110;SDS011;29774;52.664;5.074;2022-10-30T00:27:39;12.27;;;6.20;;
44110;SDS011;29774;52.664;5.074;2022-10-30T00:30:05;10.25;;;6.18;;
44110;SDS011;29774;52.664;5.074;2022-10-30T00:32:31;12.68;;;6.72;;
44110;SDS011;29774;52.664;5.074;2022-10-30T00:34:56;14.15;;;6.72;;
44110;SDS011;29774;52.664;5.074;2022-10-30T00:37:22;10.85;;;6.50;;
44110;SDS011;29774;52.664;5.074;2022-10-30T00:39:48;14.13;;;6.28;;
44110;SDS011;29774;52.664;5.074;2022-10-30T00:42:13;11.85;;;5.93;;
44110;SDS011;29774;52.664;5.074;2022-10-30T00:47:14;11.07;;;6.95;;
44110;SDS011;29774;52.664;5.074;2022-10-30T00:49:54;14.57;;;7.10;;
44110;SDS011;29774;52.664;5.074;2022-10-30T00:52:34;11.65;;;6.55;;
44110;SDS011;29774;52.664;5.074;2022-10-30T00:55:07;15.63;;;6.47;;
44110;SDS011;29774;52.664;5.074;2022-10-30T00:57:37;13.60;;;6.55;;
44110;SDS011;29774;52.664;5.074;2022-10-30T01:00:05;10.65;;;5.75;;
44110;SDS011;29774;52.664;5.074;2022-10-30T01:02:32;11.98;;;6.68;;
44110;SDS011;29774;52.664;5.074;2022-10-30T01:04:58;10.38;;;6.25;;
44110;SDS011;29774;52.664;5.074;2022-10-30T01:07:24;13.85;;;6.32;;
44110;SDS011;29774;52.664;5.074;2022-10-30T01:09:50;9.55;;;5.78;;
44110;SDS011;29774;52.664;5.074;2022-10-30T01:12:16;14.13;;;7.00;;
44110;SDS011;29774;52.664;5.074;2022-10-30T01:14:43;10.10;;;5.90;;
44110;SDS011;29774;52.664;5.074;2022-10-30T01:19:53;10.90;;;6.22;;
44110;SDS011;29774;52.664;5.074;2022-10-30T01:33:10;14.18;;;6.07;;
44110;SDS011;29774;52.664;5.074;2022-10-30T01:35:45;11.93;;;6.72;;
44110;SDS011;29774;52.664;5.074;2022-10-30T01:41:02;11.88;;;6.40;;
44110;SDS011;29774;52.664;5.074;2022-10-30T01:43:28;12.07;;;6.20;;
44110;SDS011;29774;52.664;5.074;2022-10-30T01:48:38;11.88;;;6.05;;
44110;SDS011;29774;52.664;5.074;2022-10-30T01:59:25;12.98;;;7.07;;
44110;SDS011;29774;52.664;5.074;2022-10-30T02:02:13;14.02;;;6.80;;
44110;SDS011;29774;52.664;5.074;2022-10-30T02:04:39;9.50;;;6.53;;
44110;SDS011;29774;52.664;5.074;2022-10-30T02:07:06;13.43;;;7.15;;
44110;SDS011;29774;52.664;5.074;2022-10-30T02:09:31;11.82;;;5.80;;
44110;SDS011;29774;52.664;5.074;2022-10-30T02:11:57;10.25;;;7.03;;
44110;SDS011;29774;52.664;5.074;2022-10-30T02:14:31;12.63;;;6.68;;
44110;SDS011;29774;52.664;5.074;2022-10-30T02:17:01;8.10;;;4.35;;
44110;SDS011;29774;52.664;5.074;2022-10-30T02:19:29;17.17;;;6.65;;
44110;SDS011;29774;52.664;5.074;2022-10-30T02:21:55;13.70;;;7.13;;
44110;SDS011;29774;52.664;5.074;2022-10-30T02:24:20;17.33;;;7.32;;
44110;SDS011;29774;52.664;5.074;2022-10-30T02:26:46;13.60;;;6.45;;
44110;SDS011;29774;52.664;5.074;2022-10-30T02:29:11;9.85;;;6.50;;
44110;SDS011;29774;52.664;5.074;2022-10-30T02:31:37;9.30;;;6.30;;
44110;SDS011;29774;52.664;5.074;2022-10-30T02:34:03;15.18;;;7.45;;
44110;SDS011;29774;52.664;5.074;2022-10-30T02:36:28;12.73;;;6.68;;
44110;SDS011;29774;52.664;5.074;2022-10-30T02:38:54;10.80;;;6.20;;
44110;SDS011;29774;52.664;5.074;2022-10-30T02:41:22;12.02;;;6.40;;
44110;SDS011;29774;52.664;5.074;2022-10-30T02:43:49;15.82;;;7.32;;
44110;SDS011;29774;52.664;5.074;2022-10-30T02:46:16;10.63;;;6.55;;
44110;SDS011;29774;52.664;5.074;2022-10-30T02:48:41;12.52;;;6.78;;
44110;SDS011;29774;52.664;5.074;2022-10-30T02:51:07;11.77;;;6.80;;
44110;SDS011;29774;52.664;5.074;2022-10-30T02:53:33;17.55;;;7.30;;
44110;SDS011;29774;52.664;5.074;2022-10-30T02:56:09;11.50;;;6.88;;
44110;SDS011;29774;52.664;5.074;2022-10-30T02:58:36;12.15;;;6.22;;
44110;SDS011;29774;52.664;5.074;2022-10-30T03:01:15;12.32;;;6.47;;
44110;SDS011;29774;52.664;5.074;2022-10-30T03:03:42;12.77;;;6.63;;
44110;SDS011;29774;52.664;5.074;2022-10-30T03:06:08;11.45;;;7.43;;
44110;SDS011;29774;52.664;5.074;2022-10-30T03:08:35;12.60;;;7.10;;
44110;SDS011;29774;52.664;5.074;2022-10-30T03:11:06;12.00;;;7.05;;
44110;SDS011;29774;52.664;5.074;2022-10-30T03:13:36;15.18;;;6.75;;
44110;SDS011;29774;52.664;5.074;2022-10-30T03:16:06;10.07;;;6.32;;
44110;SDS011;29774;52.664;5.074;2022-10-30T03:18:34;11.63;;;7.30;;
44110;SDS011;29774;52.664;5.074;2022-10-30T03:21:01;16.00;;;6.85;;
44110;SDS011;29774;52.664;5.074;2022-10-30T03:23:28;11.88;;;6.47;;
44110;SDS011;29774;52.664;5.074;2022-10-30T03:25:54;11.25;;;6.68;;
44110;SDS011;29774;52.664;5.074;2022-10-30T03:28:21;14.77;;;6.72;;
44110;SDS011;29774;52.664;5.074;2022-10-30T03:30:48;13.57;;;6.53;;
44110;SDS011;29774;52.664;5.074;2022-10-30T03:33:14;13.25;;;6.35;;
44110;SDS011;29774;52.664;5.074;2022-10-30T03:35:41;16.75;;;7.95;;
44110;SDS011;29774;52.664;5.074;2022-10-30T03:38:11;12.65;;;7.20;;
44110;SDS011;29774;52.664;5.074;2022-10-30T03:40:37;9.73;;;5.68;;
44110;SDS011;29774;52.664;5.074;2022-10-30T03:43:03;12.75;;;7.15;;
44110;SDS011;29774;52.664;5.074;2022-10-30T03:45:28;17.52;;;8.02;;
44110;SDS011;29774;52.664;5.074;2022-10-30T03:47:56;13.02;;;7.28;;
44110;SDS011;29774;52.664;5.074;2022-10-30T03:50:21;12.23;;;6.18;;
44110;SDS011;29774;52.664;5.074;2022-10-30T03:52:47;14.52;;;6.50;;
44110;SDS011;29774;52.664;5.074;2022-10-30T03:55:12;10.68;;;6.65;;
44110;SDS011;29774;52.664;5.074;2022-10-30T03:57:38;12.25;;;6.65;;
44110;SDS011;29774;52.664;5.074;2022-10-30T04:00:04;14.70;;;6.93;;
44110;SDS011;29774;52.664;5.074;2022-10-30T04:02:30;10.98;;;6.35;;
44110;SDS011;29774;52.664;5.074;2022-10-30T04:04:55;11.18;;;6.97;;
44110;SDS011;29774;52.664;5.074;2022-10-30T04:07:21;10.35;;;6.78;;
44110;SDS011;29774;52.664;5.074;2022-10-30T04:09:47;9.98;;;7.53;;
44110;SDS011;29774;52.664;5.074;2022-10-30T04:12:12;11.20;;;6.93;;
44110;SDS011;29774;52.664;5.074;2022-10-30T04:14:38;10.88;;;6.43;;
44110;SDS011;29774;52.664;5.074;2022-10-30T04:17:03;11.43;;;6.93;;
44110;SDS011;29774;52.664;5.074;2022-10-30T04:19:30;9.57;;;6.68;;
44110;SDS011;29774;52.664;5.074;2022-10-30T04:21:56;12.07;;;6.47;;
44110;SDS011;29774;52.664;5.074;2022-10-30T04:24:21;15.23;;;6.68;;
44110;SDS011;29774;52.664;5.074;2022-10-30T04:26:47;18.88;;;7.78;;
44110;SDS011;29774;52.664;5.074;2022-10-30T04:29:13;9.68;;;6.30;;
44110;SDS011;29774;52.664;5.074;2022-10-30T04:31:38;10.40;;;6.78;;
44110;SDS011;29774;52.664;5.074;2022-10-30T04:34:04;16.30;;;7.25;;
44110;SDS011;29774;52.664;5.074;2022-10-30T04:36:29;15.60;;;7.65;;
44110;SDS011;29774;52.664;5.074;2022-10-30T04:38:58;10.63;;;6.78;;
44110;SDS011;29774;52.664;5.074;2022-10-30T04:41:24;12.73;;;6.85;;
44110;SDS011;29774;52.664;5.074;2022-10-30T04:43:50;13.52;;;6.35;;
44110;SDS011;29774;52.664;5.074;2022-10-30T04:46:15;11.43;;;6.75;;
44110;SDS011;29774;52.664;5.074;2022-10-30T04:48:42;11.35;;;7.07;;
44110;SDS011;29774;52.664;5.074;2022-10-30T04:51:08;12.82;;;7.05;;
44110;SDS011;29774;52.664;5.074;2022-10-30T04:53:35;11.35;;;6.35;;
44110;SDS011;29774;52.664;5.074;2022-10-30T04:56:07;12.45;;;7.68;;
44110;SDS011;29774;52.664;5.074;2022-10-30T04:58:32;14.30;;;8.20;;
44110;SDS011;29774;52.664;5.074;2022-10-30T05:01:01;12.68;;;7.10;;
44110;SDS011;29774;52.664;5.074;2022-10-30T05:03:28;11.85;;;6.95;;
44110;SDS011;29774;52.664;5.074;2022-10-30T05:05:59;13.85;;;7.97;;
44110;SDS011;29774;52.664;5.074;2022-10-30T05:08:28;10.45;;;7.10;;
44110;SDS011;29774;52.664;5.074;2022-10-30T05:10:54;11.50;;;6.90;;
44110;SDS011;29774;52.664;5.074;2022-10-30T05:13:38;13.88;;;7.38;;
44110;SDS011;29774;52.664;5.074;2022-10-30T05:16:04;13.95;;;8.10;;
44110;SDS011;29774;52.664;5.074;2022-10-30T05:18:30;16.08;;;7.15;;
44110;SDS011;29774;52.664;5.074;2022-10-30T05:20:55;10.20;;;6.95;;
44110;SDS011;29774;52.664;5.074;2022-10-30T05:23:21;12.05;;;6.93;;
44110;SDS011;29774;52.664;5.074;2022-10-30T05:25:46;11.85;;;8.07;;
44110;SDS011;29774;52.664;5.074;2022-10-30T05:28:12;14.15;;;8.20;;
44110;SDS011;29774;52.664;5.074;2022-10-30T05:30:37;16.70;;;8.35;;
44110;SDS011;29774;52.664;5.074;2022-10-30T05:33:04;12.40;;;7.30;;
44110;SDS011;29774;52.664;5.074;2022-10-30T05:35:31;17.15;;;8.00;;
44110;SDS011;29774;52.664;5.074;2022-10-30T05:37:58;15.05;;;8.25;;
44110;SDS011;29774;52.664;5.074;2022-10-30T05:40:25;15.23;;;8.98;;
44110;SDS011;29774;52.664;5.074;2022-10-30T05:42:50;13.13;;;7.57;;
44110;SDS011;29774;52.664;5.074;2022-10-30T05:45:16;13.07;;;7.47;;
44110;SDS011;29774;52.664;5.074;2022-10-30T05:47:42;14.45;;;7.63;;
44110;SDS011;29774;52.664;5.074;2022-10-30T05:50:08;11.43;;;7.55;;
44110;SDS011;29774;52.664;5.074;2022-10-30T05:52:36;13.43;;;7.93;;
44110;SDS011;29774;52.664;5.074;2022-10-30T05:55:02;15.27;;;7.55;;
44110;SDS011;29774;52.664;5.074;2022-10-30T05:57:28;14.50;;;7.97;;
44110;SDS011;29774;52.664;5.074;2022-10-30T05:59:57;15.63;;;7.45;;
44110;SDS011;29774;52.664;5.074;2022-10-30T06:02:22;11.15;;;7.22;;
44110;SDS011;29774;52.664;5.074;2022-10-30T06:04:48;11.95;;;7.90;;
44110;SDS011;29774;52.664;5.074;2022-10-30T06:07:14;14.05;;;7.15;;
44110;SDS011;29774;52.664;5.074;2022-10-30T06:09:39;16.42;;;7.75;;
44110;SDS011;29774;52.664;5.074;2022-10-30T06:12:05;13.80;;;7.72;;
44110;SDS011;29774;52.664;5.074;2022-10-30T06:14:31;12.52;;;7.43;;
44110;SDS011;29774;52.664;5.074;2022-10-30T06:16:56;17.77;;;8.52;;
44110;SDS011;29774;52.664;5.074;2022-10-30T06:19:22;15.95;;;7.47;;
44110;SDS011;29774;52.664;5.074;2022-10-30T06:21:47;14.13;;;8.07;;
44110;SDS011;29774;52.664;5.074;2022-10-30T06:24:13;11.73;;;6.78;;
44110;SDS011;29774;52.664;5.074;2022-10-30T06:26:39;12.35;;;7.18;;
44110;SDS011;29774;52.664;5.074;2022-10-30T06:29:05;12.50;;;7.22;;
44110;SDS011;29774;52.664;5.074;2022-10-30T06:31:30;16.33;;;8.73;;
44110;SDS011;29774;52.664;5.074;2022-10-30T06:33:56;16.90;;;8.85;;
44110;SDS011;29774;52.664;5.074;2022-10-30T06:36:22;8.05;;;6.50;;
44110;SDS011;29774;52.664;5.074;2022-10-30T06:38:47;11.05;;;8.00;;
44110;SDS011;29774;52.664;5.074;2022-10-30T06:41:13;14.88;;;8.20;;
44110;SDS011;29774;52.664;5.074;2022-10-30T06:43:38;18.48;;;9.35;;
44110;SDS011;29774;52.664;5.074;2022-10-30T06:46:04;12.48;;;7.40;;
44110;SDS011;29774;52.664;5.074;2022-10-30T06:48:30;10.65;;;6.60;;
44110;SDS011;29774;52.664;5.074;2022-10-30T06:50:56;13.63;;;8.40;;
44110;SDS011;29774;52.664;5.074;2022-10-30T06:53:23;15.30;;;7.63;;
44110;SDS011;29774;52.664;5.074;2022-10-30T06:55:53;16.15;;;8.10;;
44110;SDS011;29774;52.664;5.074;2022-10-30T06:58:20;13.23;;;7.63;;
44110;SDS011;29774;52.664;5.074;2022-10-30T07:00:46;11.05;;;6.13;;
44110;SDS011;29774;52.664;5.074;2022-10-30T07:03:11;11.82;;;7.60;;
44110;SDS011;29774;52.664;5.074;2022-10-30T07:05:37;13.38;;;8.00;;
44110;SDS011;29774;52.664;5.074;2022-10-30T07:08:02;12.77;;;6.63;;
44110;SDS011;29774;52.664;5.074;2022-10-30T07:10:28;11.70;;;7.30;;
44110;SDS011;29774;52.664;5.074;2022-10-30T07:12:54;9.88;;;5.85;;
44110;SDS011;29774;52.664;5.074;2022-10-30T07:15:20;14.20;;;7.25;;
44110;SDS011;29774;52.664;5.074;2022-10-30T07:17:56;18.65;;;8.80;;
44110;SDS011;29774;52.664;5.074;2022-10-30T07:20:24;9.52;;;5.25;;
44110;SDS011;29774;52.664;5.074;2022-10-30T07:22:51;14.90;;;7.88;;
44110;SDS011;29774;52.664;5.074;2022-10-30T07:25:17;13.32;;;8.27;;
44110;SDS011;29774;52.664;5.074;2022-10-30T07:30:10;15.80;;;8.20;;
44110;SDS011;29774;52.664;5.074;2022-10-30T07:32:36;13.57;;;7.25;;
44110;SDS011;29774;52.664;5.074;2022-10-30T07:35:02;11.85;;;7.47;;
44110;SDS011;29774;52.664;5.074;2022-10-30T07:37:28;10.50;;;6.47;;
44110;SDS011;29774;52.664;5.074;2022-10-30T07:39:54;7.80;;;5.78;;
44110;SDS011;29774;52.664;5.074;2022-10-30T07:42:38;8.48;;;5.07;;
44110;SDS011;29774;52.664;5.074;2022-10-30T07:45:03;8.82;;;6.30;;
44110;SDS011;29774;52.664;5.074;2022-10-30T07:47:29;15.00;;;7.82;;
44110;SDS011;29774;52.664;5.074;2022-10-30T07:49:55;10.68;;;5.90;;
44110;SDS011;29774;52.664;5.074;2022-10-30T07:52:20;13.38;;;6.80;;
44110;SDS011;29774;52.664;5.074;2022-10-30T07:54:46;10.35;;;5.35;;
44110;SDS011;29774;52.664;5.074;2022-10-30T07:57:11;7.75;;;5.25;;
44110;SDS011;29774;52.664;5.074;2022-10-30T07:59:37;15.05;;;7.65;;
44110;SDS011;29774;52.664;5.074;2022-10-30T08:02:02;9.77;;;6.25;;
44110;SDS011;29774;52.664;5.074;2022-10-30T08:04:28;12.55;;;6.97;;
44110;SDS011;29774;52.664;5.074;2022-10-30T08:06:53;11.82;;;5.60;;
44110;SDS011;29774;52.664;5.074;2022-10-30T08:09:19;10.73;;;6.28;;
44110;SDS011;29774;52.664;5.074;2022-10-30T08:11:44;14.75;;;6.75;;
44110;SDS011;29774;52.664;5.074;2022-10-30T08:14:10;13.75;;;7.80;;
44110;SDS011;29774;52.664;5.074;2022-10-30T08:16:35;9.63;;;5.47;;
44110;SDS011;29774;52.664;5.074;2022-10-30T08:19:01;12.98;;;6.40;;
44110;SDS011;29774;52.664;5.074;2022-10-30T08:21:27;13.25;;;7.30;;
44110;SDS011;29774;52.664;5.074;2022-10-30T08:23:52;14.32;;;7.55;;
44110;SDS011;29774;52.664;5.074;2022-10-30T08:26:18;15.63;;;8.55;;
44110;SDS011;29774;52.664;5.074;2022-10-30T08:28:44;14.13;;;7.88;;
44110;SDS011;29774;52.664;5.074;2022-10-30T08:31:09;10.18;;;6.78;;
44110;SDS011;29774;52.664;5.074;2022-10-30T08:33:35;12.75;;;7.50;;
44110;SDS011;29774;52.664;5.074;2022-10-30T08:36:00;12.10;;;6.25;;
44110;SDS011;29774;52.664;5.074;2022-10-30T08:38:26;14.75;;;7.75;;
44110;SDS011;29774;52.664;5.074;2022-10-30T08:40:53;12.93;;;6.47;;
44110;SDS011;29774;52.664;5.074;2022-10-30T08:43:18;11.15;;;6.60;;
44110;SDS011;29774;52.664;5.074;2022-10-30T08:45:44;10.82;;;6.75;;
44110;SDS011;29774;52.664;5.074;2022-10-30T08:48:11;18.58;;;7.78;;
44110;SDS011;29774;52.664;5.074;2022-10-30T08:50:38;8.23;;;5.50;;
44110;SDS011;29774;52.664;5.074;2022-10-30T08:53:05;7.80;;;6.05;;
44110;SDS011;29774;52.664;5.074;2022-10-30T08:55:32;9.20;;;5.88;;
44110;SDS011;29774;52.664;5.074;2022-10-30T08:58:17;10.77;;;7.20;;
44110;SDS011;29774;52.664;5.074;2022-10-30T09:00:42;16.23;;;8.25;;
44110;SDS011;29774;52.664;5.074;2022-10-30T09:03:08;17.90;;;8.07;;
44110;SDS011;29774;52.664;5.074;2022-10-30T09:05:35;12.20;;;6.85;;
44110;SDS011;29774;52.664;5.074;2022-10-30T09:08:00;13.75;;;7.25;;
44110;SDS011;29774;52.664;5.074;2022-10-30T09:10:26;14.23;;;7.97;;
44110;SDS011;29774;52.664;5.074;2022-10-30T09:12:55;16.15;;;8.73;;
44110;SDS011;29774;52.664;5.074;2022-10-30T09:15:22;17.77;;;8.75;;
44110;SDS011;29774;52.664;5.074;2022-10-30T09:17:53;14.43;;;8.57;;
44110;SDS011;29774;52.664;5.074;2022-10-30T09:20:19;12.73;;;7.65;;
44110;SDS011;29774;52.664;5.074;2022-10-30T09:22:45;15.50;;;8.60;;
44110;SDS011;29774;52.664;5.074;2022-10-30T09:25:10;17.10;;;8.05;;
44110;SDS011;29774;52.664;5.074;2022-10-30T09:27:36;15.88;;;7.97;;
44110;SDS011;29774;52.664;5.074;2022-10-30T09:30:03;15.13;;;8.02;;
44110;SDS011;29774;52.664;5.074;2022-10-30T09:32:29;19.02;;;8.07;;
44110;SDS011;29774;52.664;5.074;2022-10-30T09:34:54;10.63;;;7.00;;
44110;SDS011;29774;52.664;5.074;2022-10-30T09:37:20;16.13;;;8.95;;
44110;SDS011;29774;52.664;5.074;2022-10-30T09:39:47;12.90;;;7.82;;
44110;SDS011;29774;52.664;5.074;2022-10-30T09:42:28;12.45;;;8.35;;
44110;SDS011;29774;52.664;5.074;2022-10-30T09:50:45;11.48;;;5.65;;
44110;SDS011;29774;52.664;5.074;2022-10-30T09:58:45;8.27;;;5.68;;
44110;SDS011;29774;52.664;5.074;2022-10-30T10:04:22;14.43;;;7.68;;
44110;SDS011;29774;52.664;5.074;2022-10-30T10:06:57;14.50;;;7.15;;
44110;SDS011;29774;52.664;5.074;2022-10-30T10:09:28;12.82;;;7.35;;
44110;SDS011;29774;52.664;5.074;2022-10-30T10:12:02;10.27;;;7.00;;
44110;SDS011;29774;52.664;5.074;2022-10-30T10:14:33;14.48;;;7.85;;
44110;SDS011;29774;52.664;5.074;2022-10-30T10:17:01;7.60;;;5.53;;
44110;SDS011;29774;52.664;5.074;2022-10-30T10:24:45;7.93;;;5.68;;
44110;SDS011;29774;52.664;5.074;2022-10-30T10:33:41;14.07;;;7.10;;
44110;SDS011;29774;52.664;5.074;2022-10-30T10:36:41;7.28;;;5.20;;
44110;SDS011;29774;52.664;5.074;2022-10-30T10:42:34;16.92;;;9.05;;
44110;SDS011;29774;52.664;5.074;2022-10-30T10:45:17;8.02;;;5.40;;
44110;SDS011;29774;52.664;5.074;2022-10-30T10:48:00;19.13;;;8.82;;
44110;SDS011;29774;52.664;5.074;2022-10-30T10:53:29;9.43;;;5.57;;
44110;SDS011;29774;52.664;5.074;2022-10-30T10:56:05;11.00;;;6.80;;
44110;SDS011;29774;52.664;5.074;2022-10-30T11:01:20;13.68;;;8.65;;
44110;SDS011;29774;52.664;5.074;2022-10-30T11:06:35;8.60;;;6.68;;
44110;SDS011;29774;52.664;5.074;2022-10-30T11:09:22;17.45;;;9.30;;
44110;SDS011;29774;52.664;5.074;2022-10-30T11:11:51;13.48;;;9.60;;
44110;SDS011;29774;52.664;5.074;2022-10-30T11:14:23;17.33;;;9.25;;
44110;SDS011;29774;52.664;5.074;2022-10-30T11:19:35;20.30;;;9.85;;
44110;SDS011;29774;52.664;5.074;2022-10-30T11:22:01;16.30;;;10.40;;
44110;SDS011;29774;52.664;5.074;2022-10-30T11:24:31;15.85;;;9.95;;
44110;SDS011;29774;52.664;5.074;2022-10-30T11:27:14;14.57;;;8.95;;
44110;SDS011;29774;52.664;5.074;2022-10-30T11:30:03;17.65;;;8.98;;
44110;SDS011;29774;52.664;5.074;2022-10-30T11:32:32;18.25;;;10.13;;
44110;SDS011;29774;52.664;5.074;2022-10-30T11:37:37;16.17;;;9.73;;
44110;SDS011;29774;52.664;5.074;2022-10-30T11:42:40;13.20;;;10.00;;
44110;SDS011;29774;52.664;5.074;2022-10-30T11:45:15;16.30;;;10.38;;
44110;SDS011;29774;52.664;5.074;2022-10-30T11:47:52;17.80;;;9.82;;
44110;SDS011;29774;52.664;5.074;2022-10-30T11:50:28;18.85;;;10.05;;
44110;SDS011;29774;52.664;5.074;2022-10-30T11:52:56;15.80;;;10.02;;
44110;SDS011;29774;52.664;5.074;2022-10-30T11:58:16;17.05;;;10.50;;
44110;SDS011;29774;52.664;5.074;2022-10-30T12:01:00;13.43;;;9.77;;
44110;SDS011;29774;52.664;5.074;2022-10-30T12:03:33;22.40;;;10.25;;
44110;SDS011;29774;52.664;5.074;2022-10-30T12:06:12;18.67;;;10.20;;
44110;SDS011;29774;52.664;5.074;2022-10-30T12:11:38;13.73;;;9.50;;
44110;SDS011;29774;52.664;5.074;2022-10-30T12:14:13;17.88;;;11.18;;
44110;SDS011;29774;52.664;5.074;2022-10-30T12:16:45;16.75;;;10.25;;
44110;SDS011;29774;52.664;5.074;2022-10-30T12:19:12;19.58;;;10.60;;
44110;SDS011;29774;52.664;5.074;2022-10-30T12:21:42;16.33;;;10.05;;
44110;SDS011;29774;52.664;5.074;2022-10-30T12:24:20;16.98;;;10.45;;
44110;SDS011;29774;52.664;5.074;2022-10-30T12:26:55;22.40;;;12.10;;
44110;SDS011;29774;52.664;5.074;2022-10-30T12:29:27;13.93;;;9.68;;
44110;SDS011;29774;52.664;5.074;2022-10-30T12:32:05;19.80;;;10.30;;
44110;SDS011;29774;52.664;5.074;2022-10-30T12:34:56;21.40;;;10.90;;
44110;SDS011;29774;52.664;5.074;2022-10-30T12:37:36;17.20;;;10.90;;
44110;SDS011;29774;52.664;5.074;2022-10-30T12:40:08;16.70;;;10.60;;
44110;SDS011;29774;52.664;5.074;2022-10-30T12:42:42;17.55;;;10.50;;
44110;SDS011;29774;52.664;5.074;2022-10-30T12:45:16;20.27;;;10.70;;
44110;SDS011;29774;52.664;5.074;2022-10-30T12:50:31;18.33;;;10.68;;
44110;SDS011;29774;52.664;5.074;2022-10-30T12:55:57;15.27;;;10.88;;
44110;SDS011;29774;52.664;5.074;2022-10-30T12:58:45;17.30;;;11.27;;
44110;SDS011;29774;52.664;5.074;2022-10-30T13:01:31;18.90;;;11.07;;
44110;SDS011;29774;52.664;5.074;2022-10-30T13:07:14;19.63;;;11.60;;
44110;SDS011;29774;52.664;5.074;2022-10-30T13:12:18;18.80;;;11.45;;
44110;SDS011;29774;52.664;5.074;2022-10-30T13:14:53;20.98;;;11.05;;
44110;SDS011;29774;52.664;5.074;2022-10-30T13:17:22;18.67;;;12.02;;
44110;SDS011;29774;52.664;5.074;2022-10-30T13:19:48;15.95;;;11.30;;
44110;SDS011;29774;52.664;5.074;2022-10-30T13:25:23;20.10;;;11.35;;
44110;SDS011;29774;52.664;5.074;2022-10-30T13:28:16;15.38;;;10.45;;
44110;SDS011;29774;52.664;5.074;2022-10-30T13:34:15;21.73;;;11.40;;
44110;SDS011;29774;52.664;5.074;2022-10-30T13:37:13;22.35;;;11.63;;
44110;SDS011;29774;52.664;5.074;2022-10-30T13:54:16;20.00;;;10.60;;
44110;SDS011;29774;52.664;5.074;2022-10-30T13:56:41;15.48;;;10.63;;
44110;SDS011;29774;52.664;5.074;2022-10-30T14:05:18;19.25;;;11.48;;
44110;SDS011;29774;52.664;5.074;2022-10-30T14:07:56;15.32;;;10.57;;
44110;SDS011;29774;52.664;5.074;2022-10-30T14:10:51;22.10;;;10.93;;
44110;SDS011;29774;52.664;5.074;2022-10-30T14:13:26;17.58;;;10.00;;
44110;SDS011;29774;52.664;5.074;2022-10-30T14:16:00;19.15;;;10.35;;
44110;SDS011;29774;52.664;5.074;2022-10-30T14:18:30;20.45;;;11.13;;
44110;SDS011;29774;52.664;5.074;2022-10-30T14:24:00;20.48;;;11.27;;
44110;SDS011;29774;52.664;5.074;2022-10-30T14:26:28;18.02;;;12.27;;
44110;SDS011;29774;52.664;5.074;2022-10-30T14:28:53;20.55;;;11.45;;
44110;SDS011;29774;52.664;5.074;2022-10-30T14:31:31;20.10;;;11.80;;
44110;SDS011;29774;52.664;5.074;2022-10-30T14:33:58;23.08;;;11.77;;
44110;SDS011;29774;52.664;5.074;2022-10-30T14:41:38;16.67;;;10.35;;
44110;SDS011;29774;52.664;5.074;2022-10-30T14:44:23;17.08;;;10.35;;
44110;SDS011;29774;52.664;5.074;2022-10-30T14:49:36;19.52;;;10.20;;
44110;SDS011;29774;52.664;5.074;2022-10-30T14:52:31;14.27;;;8.60;;
44110;SDS011;29774;52.664;5.074;2022-10-30T14:58:16;16.00;;;8.57;;
44110;SDS011;29774;52.664;5.074;2022-10-30T15:00:47;14.73;;;7.88;;
44110;SDS011;29774;52.664;5.074;2022-10-30T15:05:50;15.65;;;8.45;;
44110;SDS011;29774;52.664;5.074;2022-10-30T15:16:56;17.63;;;8.60;;
44110;SDS011;29774;52.664;5.074;2022-10-30T15:19:21;15.15;;;8.10;;
44110;SDS011;29774;52.664;5.074;2022-10-30T15:21:49;17.90;;;8.23;;
44110;SDS011;29774;52.664;5.074;2022-10-30T15:24:18;15.63;;;8.65;;
44110;SDS011;29774;52.664;5.074;2022-10-30T15:26:49;14.40;;;7.70;;
44110;SDS011;29774;52.664;5.074;2022-10-30T15:29:19;9.90;;;6.38;;
44110;SDS011;29774;52.664;5.074;2022-10-30T15:31:59;15.30;;;8.40;;
44110;SDS011;29774;52.664;5.074;2022-10-30T15:34:59;12.57;;;7.53;;
44110;SDS011;29774;52.664;5.074;2022-10-30T15:37:29;16.77;;;7.30;;
44110;SDS011;29774;52.664;5.074;2022-10-30T15:42:44;14.90;;;7.43;;
44110;SDS011;29774;52.664;5.074;2022-10-30T15:45:15;14.73;;;8.68;;
44110;SDS011;29774;52.664;5.074;2022-10-30T15:47:44;17.67;;;6.93;;
44110;SDS011;29774;52.664;5.074;2022-10-30T15:50:13;19.95;;;7.60;;
44110;SDS011;29774;52.664;5.074;2022-10-30T15:52:40;14.50;;;7.43;;
44110;SDS011;29774;52.664;5.074;2022-10-30T15:55:08;16.38;;;6.32;;
44110;SDS011;29774;52.664;5.074;2022-10-30T15:57:41;12.40;;;7.25;;
44110;SDS011;29774;52.664;5.074;2022-10-30T16:00:22;11.02;;;6.82;;
44110;SDS011;29774;52.664;5.074;2022-10-30T16:02:59;13.52;;;7.90;;
44110;SDS011;29774;52.664;5.074;2022-10-30T16:05:25;13.35;;;6.70;;
44110;SDS011;29774;52.664;5.074;2022-10-30T16:07:53;10.13;;;5.68;;
44110;SDS011;29774;52.664;5.074;2022-10-30T16:10:21;11.50;;;5.85;;
44110;SDS011;29774;52.664;5.074;2022-10-30T16:12:50;10.85;;;5.22;;
44110;SDS011;29774;52.664;5.074;2022-10-30T16:15:23;11.63;;;5.45;;
44110;SDS011;29774;52.664;5.074;2022-10-30T16:18:09;12.68;;;5.60;;
44110;SDS011;29774;52.664;5.074;2022-10-30T16:20:38;14.55;;;7.03;;
44110;SDS011;29774;52.664;5.074;2022-10-30T16:23:06;11.88;;;6.18;;
44110;SDS011;29774;52.664;5.074;2022-10-30T16:25:32;10.02;;;5.63;;
44110;SDS011;29774;52.664;5.074;2022-10-30T16:28:01;15.23;;;7.25;;
44110;SDS011;29774;52.664;5.074;2022-10-30T16:30:28;10.95;;;5.85;;
44110;SDS011;29774;52.664;5.074;2022-10-30T16:32:56;14.15;;;6.55;;
44110;SDS011;29774;52.664;5.074;2022-10-30T16:35:22;8.20;;;5.40;;
44110;SDS011;29774;52.664;5.074;2022-10-30T16:37:49;11.05;;;5.50;;
44110;SDS011;29774;52.664;5.074;2022-10-30T16:40:16;10.30;;;5.50;;
44110;SDS011;29774;52.664;5.074;2022-10-30T16:42:55;11.80;;;5.38;;
44110;SDS011;29774;52.664;5.074;2022-10-30T16:47:51;15.98;;;6.57;;
44110;SDS011;29774;52.664;5.074;2022-10-30T16:50:33;10.18;;;5.50;;
44110;SDS011;29774;52.664;5.074;2022-10-30T16:53:10;11.00;;;5.30;;
44110;SDS011;29774;52.664;5.074;2022-10-30T16:55:44;13.82;;;5.50;;
44110;SDS011;29774;52.664;5.074;2022-10-30T16:58:11;14.43;;;4.63;;
44110;SDS011;29774;52.664;5.074;2022-10-30T17:00:39;11.93;;;4.63;;
44110;SDS011;29774;52.664;5.074;2022-10-30T17:03:06;8.85;;;5.25;;
44110;SDS011;29774;52.664;5.074;2022-10-30T17:05:35;10.98;;;5.43;;
44110;SDS011;29774;52.664;5.074;2022-10-30T17:08:02;14.02;;;6.18;;
44110;SDS011;29774;52.664;5.074;2022-10-30T17:16:12;13.70;;;5.25;;
44110;SDS011;29774;52.664;5.074;2022-10-30T17:19:00;8.20;;;4.10;;
44110;SDS011;29774;52.664;5.074;2022-10-30T17:21:53;7.15;;;4.40;;
44110;SDS011;29774;52.664;5.074;2022-10-30T17:24:30;10.38;;;4.88;;